sensor_id;sensor_type;location;lat;lon;timestamp;pressure;altitude;pressure_sealevel;temperature;humidity
40205;BME280;26963;42.666;23.366;2023-02-12T00:01:20;95889.91;;;2.68;36.31
40205;BME280;26963;42.666;23.366;2023-02-12T00:03:46;95889.19;;;2.61;37.03
40205;BME280;26963;42.666;23.366;2023-02-12T00:06:12;95896.56;;;2.77;36.23
40205;BME280;26963;42.666;23.366;2023-02-12T00:08:38;95887.91;;;2.89;35.77
40205;BME280;26963;42.666;23.366;2023-02-12T00:11:15;95878.47;;;2.74;35.66
40205;BME280;26963;42.666;23.366;2023-02-12T00:13:41;95894.25;;;2.81;36.21
40205;BME280;26963;42.666;23.366;2023-02-12T00:16:09;95898.09;;;2.85;35.84
40205;BME280;26963;42.666;23.366;2023-02-12T00:18:36;95899.53;;;2.81;35.72
40205;BME280;26963;42.666;23.366;2023-02-12T00:21:03;95885.84;;;2.72;35.89
40205;BME280;26963;42.666;23.366;2023-02-12T00:23:29;95893.91;;;2.77;35.95
40205;BME280;26963;42.666;23.366;2023-02-12T00:25:55;95895.94;;;2.75;36.07
40205;BME280;26963;42.666;23.366;2023-02-12T00:28:20;95855.91;;;2.53;36.30
40205;BME280;26963;42.666;23.366;2023-02-12T00:30:46;95900.44;;;2.75;36.25
40205;BME280;26963;42.666;23.366;2023-02-12T00:33:11;95890.22;;;2.78;35.92
40205;BME280;26963;42.666;23.366;2023-02-12T00:35:37;95878.69;;;2.73;35.96
40205;BME280;26963;42.666;23.366;2023-02-12T00:38:03;95863.25;;;2.70;35.94
40205;BME280;26963;42.666;23.366;2023-02-12T00:40:28;95870.41;;;2.69;35.68
40205;BME280;26963;42.666;23.366;2023-02-12T00:42:54;95808.59;;;2.33;35.89
40205;BME280;26963;42.666;23.366;2023-02-12T00:45:19;95872.03;;;2.70;35.86
40205;BME280;26963;42.666;23.366;2023-02-12T00:47:45;95864.69;;;2.72;35.93
40205;BME280;26963;42.666;23.366;2023-02-12T00:50:10;95859.06;;;2.62;35.83
40205;BME280;26963;42.666;23.366;2023-02-12T00:52:37;95787.56;;;2.20;35.74
40205;BME280;26963;42.666;23.366;2023-02-12T00:55:03;95870.31;;;2.76;35.66
40205;BME280;26963;42.666;23.366;2023-02-12T00:57:29;95859.91;;;2.81;35.98
40205;BME280;26963;42.666;23.366;2023-02-12T00:59:55;95777.03;;;2.38;35.95
40205;BME280;26963;42.666;23.366;2023-02-12T01:02:20;95846.63;;;2.88;35.39
40205;BME280;26963;42.666;23.366;2023-02-12T01:04:46;95831.94;;;2.92;35.24
40205;BME280;26963;42.666;23.366;2023-02-12T01:07:11;95818.72;;;2.92;35.02
40205;BME280;26963;42.666;23.366;2023-02-12T01:09:37;95832.00;;;3.04;35.24
40205;BME280;26963;42.666;23.366;2023-02-12T01:12:03;95704.25;;;2.24;34.93
40205;BME280;26963;42.666;23.366;2023-02-12T01:14:28;95857.69;;;3.15;34.91
40205;BME280;26963;42.666;23.366;2023-02-12T01:16:54;95777.25;;;2.74;35.39
40205;BME280;26963;42.666;23.366;2023-02-12T01:19:19;95851.09;;;3.24;35.11
40205;BME280;26963;42.666;23.366;2023-02-12T01:21:45;95863.81;;;3.16;34.96
40205;BME280;26963;42.666;23.366;2023-02-12T01:24:10;95861.31;;;3.21;35.27
40205;BME280;26963;42.666;23.366;2023-02-12T01:26:36;95815.19;;;2.98;34.92
40205;BME280;26963;42.666;23.366;2023-02-12T01:29:05;95871.00;;;3.27;35.16
40205;BME280;26963;42.666;23.366;2023-02-12T01:31:34;95776.00;;;2.76;35.58
40205;BME280;26963;42.666;23.366;2023-02-12T01:34:00;95842.94;;;3.26;35.29
40205;BME280;26963;42.666;23.366;2023-02-12T01:36:28;95785.38;;;2.91;35.52
40205;BME280;26963;42.666;23.366;2023-02-12T01:38:55;95724.00;;;2.58;34.80
40205;BME280;26963;42.666;23.366;2023-02-12T01:41:28;95852.00;;;3.49;35.03
40205;BME280;26963;42.666;23.366;2023-02-12T01:44:22;95853.16;;;3.53;34.98
40205;BME280;26963;42.666;23.366;2023-02-12T01:46:54;95738.81;;;2.90;34.75
40205;BME280;26963;42.666;23.366;2023-02-12T01:49:26;95800.06;;;3.36;35.26
40205;BME280;26963;42.666;23.366;2023-02-12T01:52:39;95814.50;;;3.52;34.81
40205;BME280;26963;42.666;23.366;2023-02-12T01:54:46;95817.97;;;3.64;35.16
40205;BME280;26963;42.666;23.366;2023-02-12T01:57:13;95824.00;;;3.71;35.09
40205;BME280;26963;42.666;23.366;2023-02-12T01:59:42;95817.78;;;3.78;34.68
40205;BME280;26963;42.666;23.366;2023-02-12T02:02:09;95793.91;;;3.54;34.61
40205;BME280;26963;42.666;23.366;2023-02-12T02:04:42;95830.81;;;3.49;34.59
40205;BME280;26963;42.666;23.366;2023-02-12T02:07:10;95709.56;;;2.73;34.85
40205;BME280;26963;42.666;23.366;2023-02-12T02:09:38;95833.84;;;3.52;35.49
40205;BME280;26963;42.666;23.366;2023-02-12T02:12:04;95826.44;;;3.42;35.56
40205;BME280;26963;42.666;23.366;2023-02-12T02:14:51;95837.75;;;3.50;35.91
40205;BME280;26963;42.666;23.366;2023-02-12T02:28:17;95831.16;;;2.91;37.71
40205;BME280;26963;42.666;23.366;2023-02-12T02:41:50;95824.28;;;2.84;37.07
40205;BME280;26963;42.666;23.366;2023-02-12T02:44:27;95758.09;;;2.41;37.31
40205;BME280;26963;42.666;23.366;2023-02-12T02:46:56;95805.34;;;2.68;37.61
40205;BME280;26963;42.666;23.366;2023-02-12T02:49:30;95785.97;;;2.56;38.03
40205;BME280;26963;42.666;23.366;2023-02-12T02:52:04;95814.47;;;2.72;37.78
40205;BME280;26963;42.666;23.366;2023-02-12T02:54:35;95839.72;;;2.87;37.97
40205;BME280;26963;42.666;23.366;2023-02-12T02:57:07;95819.09;;;2.77;37.44
40205;BME280;26963;42.666;23.366;2023-02-12T02:59:37;95836.47;;;3.03;37.12
40205;BME280;26963;42.666;23.366;2023-02-12T03:04:43;95839.41;;;3.14;37.34
40205;BME280;26963;42.666;23.366;2023-02-12T03:07:13;95841.75;;;3.22;37.13
40205;BME280;26963;42.666;23.366;2023-02-12T03:09:48;95833.69;;;3.17;37.87
40205;BME280;26963;42.666;23.366;2023-02-12T03:12:23;95830.44;;;3.15;37.54
40205;BME280;26963;42.666;23.366;2023-02-12T03:15:20;95837.22;;;3.10;37.80
40205;BME280;26963;42.666;23.366;2023-02-12T03:17:48;95748.50;;;2.47;37.83
40205;BME280;26963;42.666;23.366;2023-02-12T03:20:21;95756.78;;;2.51;38.31
40205;BME280;26963;42.666;23.366;2023-02-12T03:22:53;95694.13;;;2.02;38.57
40205;BME280;26963;42.666;23.366;2023-02-12T03:25:25;95795.44;;;2.45;38.18
40205;BME280;26963;42.666;23.366;2023-02-12T03:28:14;95832.53;;;2.75;38.96
40205;BME280;26963;42.666;23.366;2023-02-12T03:30:47;95838.25;;;2.72;39.10
40205;BME280;26963;42.666;23.366;2023-02-12T03:36:35;95789.78;;;2.41;39.13
40205;BME280;26963;42.666;23.366;2023-02-12T03:42:00;95816.91;;;2.74;38.85
40205;BME280;26963;42.666;23.366;2023-02-12T03:44:47;95827.25;;;2.75;39.32
40205;BME280;26963;42.666;23.366;2023-02-12T03:52:27;95752.16;;;2.46;39.29
40205;BME280;26963;42.666;23.366;2023-02-12T03:54:53;95831.16;;;2.91;39.07
40205;BME280;26963;42.666;23.366;2023-02-12T03:57:21;95747.91;;;2.45;39.02
40205;BME280;26963;42.666;23.366;2023-02-12T03:59:47;95806.84;;;2.83;39.36
40205;BME280;26963;42.666;23.366;2023-02-12T04:02:14;95810.00;;;2.91;38.81
40205;BME280;26963;42.666;23.366;2023-02-12T04:04:40;95814.31;;;3.04;38.63
40205;BME280;26963;42.666;23.366;2023-02-12T04:07:06;95812.38;;;3.12;38.63
40205;BME280;26963;42.666;23.366;2023-02-12T04:09:32;95827.22;;;3.13;38.65
40205;BME280;26963;42.666;23.366;2023-02-12T04:12:59;95818.72;;;3.10;38.95
40205;BME280;26963;42.666;23.366;2023-02-12T04:15:45;95828.03;;;3.13;38.72
40205;BME280;26963;42.666;23.366;2023-02-12T04:18:19;95781.28;;;2.76;38.18
40205;BME280;26963;42.666;23.366;2023-02-12T04:26:20;95845.50;;;2.77;39.61
40205;BME280;26963;42.666;23.366;2023-02-12T04:29:25;95840.47;;;2.75;39.95
40205;BME280;26963;42.666;23.366;2023-02-12T04:32:04;95774.38;;;2.20;40.17
40205;BME280;26963;42.666;23.366;2023-02-12T04:34:58;95852.13;;;2.68;40.06
40205;BME280;26963;42.666;23.366;2023-02-12T04:37:36;95829.88;;;2.57;40.06
40205;BME280;26963;42.666;23.366;2023-02-12T04:40:06;95843.19;;;2.69;39.89
40205;BME280;26963;42.666;23.366;2023-02-12T04:42:43;95852.03;;;2.74;40.16
40205;BME280;26963;42.666;23.366;2023-02-12T04:45:17;95841.84;;;2.78;40.29
40205;BME280;26963;42.666;23.366;2023-02-12T04:47:44;95838.84;;;2.74;39.96
40205;BME280;26963;42.666;23.366;2023-02-12T04:50:09;95843.31;;;2.74;40.28
40205;BME280;26963;42.666;23.366;2023-02-12T04:52:35;95856.47;;;2.81;40.31
40205;BME280;26963;42.666;23.366;2023-02-12T04:55:00;95826.19;;;2.58;40.36
40205;BME280;26963;42.666;23.366;2023-02-12T04:57:26;95849.63;;;2.73;40.29
40205;BME280;26963;42.666;23.366;2023-02-12T04:59:51;95830.63;;;2.64;40.60
40205;BME280;26963;42.666;23.366;2023-02-12T05:02:17;95824.72;;;2.62;40.40
40205;BME280;26963;42.666;23.366;2023-02-12T05:04:42;95794.94;;;2.36;40.89
40205;BME280;26963;42.666;23.366;2023-02-12T05:07:10;95780.19;;;2.28;40.44
40205;BME280;26963;42.666;23.366;2023-02-12T05:09:35;95862.19;;;2.77;40.51
40205;BME280;26963;42.666;23.366;2023-02-12T05:12:01;95852.88;;;2.75;40.60
40205;BME280;26963;42.666;23.366;2023-02-12T05:14:26;95848.31;;;2.82;40.31
40205;BME280;26963;42.666;23.366;2023-02-12T05:16:55;95844.34;;;2.73;40.72
40205;BME280;26963;42.666;23.366;2023-02-12T05:19:20;95837.78;;;2.57;40.95
40205;BME280;26963;42.666;23.366;2023-02-12T05:21:48;95805.66;;;2.41;40.92
40205;BME280;26963;42.666;23.366;2023-02-12T05:24:14;95810.50;;;2.44;40.70
40205;BME280;26963;42.666;23.366;2023-02-12T05:26:39;95881.22;;;2.86;40.84
40205;BME280;26963;42.666;23.366;2023-02-12T05:29:05;95815.78;;;2.44;41.34
40205;BME280;26963;42.666;23.366;2023-02-12T05:31:30;95807.56;;;2.53;41.15
40205;BME280;26963;42.666;23.366;2023-02-12T05:33:56;95882.31;;;2.97;41.25
40205;BME280;26963;42.666;23.366;2023-02-12T05:36:22;95885.81;;;2.91;41.11
40205;BME280;26963;42.666;23.366;2023-02-12T05:38:49;95883.72;;;3.18;40.64
40205;BME280;26963;42.666;23.366;2023-02-12T05:41:18;95896.97;;;3.30;41.18
40205;BME280;26963;42.666;23.366;2023-02-12T05:43:44;95908.16;;;3.32;40.72
40205;BME280;26963;42.666;23.366;2023-02-12T05:46:10;95905.94;;;3.29;40.81
40205;BME280;26963;42.666;23.366;2023-02-12T05:48:36;95706.94;;;1.99;41.35
40205;BME280;26963;42.666;23.366;2023-02-12T05:51:11;95849.84;;;2.90;41.73
40205;BME280;26963;42.666;23.366;2023-02-12T05:53:38;95906.78;;;3.30;42.64
40205;BME280;26963;42.666;23.366;2023-02-12T05:58:32;95911.38;;;3.34;42.95
40205;BME280;26963;42.666;23.366;2023-02-12T06:00:57;95855.78;;;3.04;43.19
40205;BME280;26963;42.666;23.366;2023-02-12T06:03:23;95897.06;;;3.23;43.33
40205;BME280;26963;42.666;23.366;2023-02-12T06:05:52;95905.34;;;3.46;43.17
40205;BME280;26963;42.666;23.366;2023-02-12T06:08:17;95907.41;;;3.43;43.45
40205;BME280;26963;42.666;23.366;2023-02-12T06:10:44;95892.19;;;3.39;43.15
40205;BME280;26963;42.666;23.366;2023-02-12T06:13:10;95759.94;;;2.59;43.00
40205;BME280;26963;42.666;23.366;2023-02-12T06:15:36;95877.63;;;3.48;43.16
40205;BME280;26963;42.666;23.366;2023-02-12T06:18:01;95853.19;;;3.34;43.29
40205;BME280;26963;42.666;23.366;2023-02-12T06:20:27;95911.91;;;3.73;43.33
40205;BME280;26963;42.666;23.366;2023-02-12T06:22:52;95864.19;;;3.50;43.27
40205;BME280;26963;42.666;23.366;2023-02-12T06:25:18;95912.59;;;3.99;43.46
40205;BME280;26963;42.666;23.366;2023-02-12T06:27:43;95896.09;;;3.97;43.93
40205;BME280;26963;42.666;23.366;2023-02-12T06:30:13;95922.78;;;4.14;44.02
40205;BME280;26963;42.666;23.366;2023-02-12T06:32:38;95884.22;;;3.88;44.12
40205;BME280;26963;42.666;23.366;2023-02-12T06:35:04;95929.34;;;4.23;44.22
40205;BME280;26963;42.666;23.366;2023-02-12T06:37:29;95848.38;;;3.73;44.61
40205;BME280;26963;42.666;23.366;2023-02-12T06:40:14;95935.19;;;4.25;44.84
40205;BME280;26963;42.666;23.366;2023-02-12T06:42:39;95928.09;;;4.26;44.68
40205;BME280;26963;42.666;23.366;2023-02-12T06:45:05;95828.25;;;3.72;45.40
40205;BME280;26963;42.666;23.366;2023-02-12T06:47:31;95877.69;;;4.02;45.63
40205;BME280;26963;42.666;23.366;2023-02-12T06:49:56;95922.00;;;4.37;45.83
40205;BME280;26963;42.666;23.366;2023-02-12T06:52:22;95891.66;;;4.21;46.17
40205;BME280;26963;42.666;23.366;2023-02-12T06:54:47;95923.38;;;4.40;46.11
40205;BME280;26963;42.666;23.366;2023-02-12T06:57:13;95911.84;;;4.34;46.38
40205;BME280;26963;42.666;23.366;2023-02-12T06:59:38;95926.94;;;4.46;46.32
40205;BME280;26963;42.666;23.366;2023-02-12T07:02:04;95936.16;;;4.43;46.32
40205;BME280;26963;42.666;23.366;2023-02-12T07:04:30;95914.63;;;4.39;46.23
40205;BME280;26963;42.666;23.366;2023-02-12T07:06:55;95842.78;;;3.82;46.60
40205;BME280;26963;42.666;23.366;2023-02-12T07:09:21;95896.84;;;4.28;46.86
40205;BME280;26963;42.666;23.366;2023-02-12T07:11:46;95930.06;;;4.43;46.80
40205;BME280;26963;42.666;23.366;2023-02-12T07:14:16;95865.47;;;4.01;46.47
40205;BME280;26963;42.666;23.366;2023-02-12T07:16:44;95934.47;;;4.49;46.86
40205;BME280;26963;42.666;23.366;2023-02-12T07:19:12;95934.22;;;4.38;46.76
40205;BME280;26963;42.666;23.366;2023-02-12T07:21:38;95929.94;;;4.37;46.84
40205;BME280;26963;42.666;23.366;2023-02-12T07:24:03;95938.38;;;4.46;46.48
40205;BME280;26963;42.666;23.366;2023-02-12T07:26:29;95910.09;;;4.28;46.87
40205;BME280;26963;42.666;23.366;2023-02-12T07:28:56;95886.00;;;4.18;46.70
40205;BME280;26963;42.666;23.366;2023-02-12T07:31:23;95903.34;;;4.32;46.51
40205;BME280;26963;42.666;23.366;2023-02-12T07:33:52;95919.47;;;4.43;47.04
40205;BME280;26963;42.666;23.366;2023-02-12T07:36:18;95868.13;;;4.01;46.92
40205;BME280;26963;42.666;23.366;2023-02-12T07:38:44;95916.56;;;4.32;46.74
40205;BME280;26963;42.666;23.366;2023-02-12T07:41:32;95926.81;;;4.40;46.76
40205;BME280;26963;42.666;23.366;2023-02-12T07:44:00;95951.97;;;4.50;47.03
40205;BME280;26963;42.666;23.366;2023-02-12T07:46:36;95900.75;;;4.14;47.11
40205;BME280;26963;42.666;23.366;2023-02-12T07:49:04;95933.03;;;4.34;47.10
40205;BME280;26963;42.666;23.366;2023-02-12T07:51:31;95906.50;;;4.11;47.47
40205;BME280;26963;42.666;23.366;2023-02-12T07:53:57;95932.22;;;4.22;47.60
40205;BME280;26963;42.666;23.366;2023-02-12T07:56:25;95812.53;;;3.47;47.28
40205;BME280;26963;42.666;23.366;2023-02-12T07:58:58;95933.03;;;4.34;47.42
40205;BME280;26963;42.666;23.366;2023-02-12T08:01:28;95947.94;;;4.47;47.54
40205;BME280;26963;42.666;23.366;2023-02-12T08:03:58;95955.66;;;4.49;47.53
40205;BME280;26963;42.666;23.366;2023-02-12T08:06:26;95935.72;;;4.46;47.62
40205;BME280;26963;42.666;23.366;2023-02-12T08:08:55;95958.31;;;4.61;47.34
40205;BME280;26963;42.666;23.366;2023-02-12T08:11:21;95946.81;;;4.55;47.26
40205;BME280;26963;42.666;23.366;2023-02-12T08:13:47;95932.84;;;4.48;47.30
40205;BME280;26963;42.666;23.366;2023-02-12T08:16:15;95931.69;;;4.44;47.35
40205;BME280;26963;42.666;23.366;2023-02-12T08:18:44;95934.47;;;4.49;47.44
40205;BME280;26963;42.666;23.366;2023-02-12T08:21:12;95945.31;;;4.59;47.59
40205;BME280;26963;42.666;23.366;2023-02-12T08:23:38;95966.31;;;4.72;47.29
40205;BME280;26963;42.666;23.366;2023-02-12T08:26:12;95844.06;;;3.91;47.14
40205;BME280;26963;42.666;23.366;2023-02-12T08:28:41;95961.22;;;4.59;47.46
40205;BME280;26963;42.666;23.366;2023-02-12T08:31:12;95833.22;;;3.81;47.45
40205;BME280;26963;42.666;23.366;2023-02-12T08:33:38;95911.94;;;4.28;47.58
40205;BME280;26963;42.666;23.366;2023-02-12T08:36:06;95978.06;;;4.77;47.40
40205;BME280;26963;42.666;23.366;2023-02-12T08:38:34;95983.34;;;4.77;47.35
40205;BME280;26963;42.666;23.366;2023-02-12T08:41:04;95914.50;;;4.34;47.38
40205;BME280;26963;42.666;23.366;2023-02-12T08:43:30;95941.94;;;4.40;47.63
40205;BME280;26963;42.666;23.366;2023-02-12T08:46:10;96002.94;;;4.76;48.48
40205;BME280;26963;42.666;23.366;2023-02-12T08:48:36;95977.69;;;4.61;48.54
40205;BME280;26963;42.666;23.366;2023-02-12T08:51:08;95800.41;;;3.39;47.81
40205;BME280;26963;42.666;23.366;2023-02-12T08:53:35;95969.75;;;4.61;47.68
40205;BME280;26963;42.666;23.366;2023-02-12T08:56:00;95944.94;;;4.44;47.31
40205;BME280;26963;42.666;23.366;2023-02-12T08:58:26;95981.63;;;4.59;47.71
40205;BME280;26963;42.666;23.366;2023-02-12T09:00:51;95949.66;;;4.41;47.62
40205;BME280;26963;42.666;23.366;2023-02-12T09:03:17;96010.22;;;4.80;47.42
40205;BME280;26963;42.666;23.366;2023-02-12T09:05:42;96004.09;;;4.80;47.56
40205;BME280;26963;42.666;23.366;2023-02-12T09:08:08;96002.59;;;4.84;47.64
40205;BME280;26963;42.666;23.366;2023-02-12T09:10:38;96001.00;;;4.83;47.72
40205;BME280;26963;42.666;23.366;2023-02-12T09:13:05;95994.66;;;4.84;47.69
40205;BME280;26963;42.666;23.366;2023-02-12T09:15:35;96011.03;;;4.93;47.58
40205;BME280;26963;42.666;23.366;2023-02-12T09:18:00;95961.91;;;4.66;47.90
40205;BME280;26963;42.666;23.366;2023-02-12T09:20:28;96013.13;;;5.02;47.84
40205;BME280;26963;42.666;23.366;2023-02-12T09:22:55;96006.19;;;5.01;47.84
40205;BME280;26963;42.666;23.366;2023-02-12T09:25:20;95990.53;;;4.88;48.01
40205;BME280;26963;42.666;23.366;2023-02-12T09:27:46;96034.81;;;5.23;47.69
40205;BME280;26963;42.666;23.366;2023-02-12T09:30:14;95958.47;;;4.78;47.92
40205;BME280;26963;42.666;23.366;2023-02-12T09:32:40;96031.72;;;5.26;47.72
40205;BME280;26963;42.666;23.366;2023-02-12T09:35:06;96023.03;;;5.19;47.69
40205;BME280;26963;42.666;23.366;2023-02-12T09:37:32;96028.22;;;5.26;47.58
40205;BME280;26963;42.666;23.366;2023-02-12T09:39:57;95989.94;;;4.98;48.02
40205;BME280;26963;42.666;23.366;2023-02-12T09:42:28;96037.72;;;5.33;47.42
40205;BME280;26963;42.666;23.366;2023-02-12T09:45:12;96037.00;;;5.38;47.16
40205;BME280;26963;42.666;23.366;2023-02-12T09:50:42;96021.19;;;5.31;47.32
40205;BME280;26963;42.666;23.366;2023-02-12T09:53:13;95963.66;;;4.84;47.28
40205;BME280;26963;42.666;23.366;2023-02-12T09:55:39;96015.44;;;5.22;47.53
40205;BME280;26963;42.666;23.366;2023-02-12T09:58:13;95835.13;;;4.16;47.17
40205;BME280;26963;42.666;23.366;2023-02-12T10:00:39;96010.47;;;5.38;47.29
40205;BME280;26963;42.666;23.366;2023-02-12T10:03:12;96018.16;;;5.63;47.08
40205;BME280;26963;42.666;23.366;2023-02-12T10:05:46;95985.84;;;5.54;46.17
40205;BME280;26963;42.666;23.366;2023-02-12T10:08:44;96032.22;;;5.99;46.23
40205;BME280;26963;42.666;23.366;2023-02-12T10:14:11;96038.59;;;6.27;45.97
40205;BME280;26963;42.666;23.366;2023-02-12T10:16:59;96013.63;;;6.28;45.28
40205;BME280;26963;42.666;23.366;2023-02-12T10:22:31;96045.97;;;6.83;44.71
40205;BME280;26963;42.666;23.366;2023-02-12T10:25:38;96039.84;;;6.99;43.83
40205;BME280;26963;42.666;23.366;2023-02-12T10:27:58;96018.63;;;7.05;43.77
40205;BME280;26963;42.666;23.366;2023-02-12T10:30:39;95969.69;;;6.89;43.94
40205;BME280;26963;42.666;23.366;2023-02-12T10:33:13;95995.16;;;7.01;43.26
40205;BME280;26963;42.666;23.366;2023-02-12T10:35:53;95909.19;;;6.45;43.31
40205;BME280;26963;42.666;23.366;2023-02-12T10:38:30;96011.25;;;7.12;43.25
40205;BME280;26963;42.666;23.366;2023-02-12T10:40:56;96034.25;;;7.18;42.81
40205;BME280;26963;42.666;23.366;2023-02-12T10:43:26;95960.03;;;6.65;43.00
40205;BME280;26963;42.666;23.366;2023-02-12T10:45:54;96025.56;;;7.06;43.33
40205;BME280;26963;42.666;23.366;2023-02-12T10:48:23;96015.88;;;6.99;43.15
40205;BME280;26963;42.666;23.366;2023-02-12T10:53:53;96049.81;;;7.09;43.51
40205;BME280;26963;42.666;23.366;2023-02-12T10:56:23;95765.59;;;5.14;43.41
40205;BME280;26963;42.666;23.366;2023-02-12T11:03:50;96044.66;;;7.02;43.54
40205;BME280;26963;42.666;23.366;2023-02-12T11:06:34;96027.25;;;6.95;43.85
40205;BME280;26963;42.666;23.366;2023-02-12T11:09:00;95944.88;;;6.49;43.58
40205;BME280;26963;42.666;23.366;2023-02-12T11:11:30;96010.00;;;6.97;43.19
40205;BME280;26963;42.666;23.366;2023-02-12T11:14:06;96033.84;;;7.26;43.26
40205;BME280;26963;42.666;23.366;2023-02-12T11:16:50;96038.28;;;7.38;43.26
40205;BME280;26963;42.666;23.366;2023-02-12T11:19:22;96024.31;;;7.30;43.30
40205;BME280;26963;42.666;23.366;2023-02-12T11:21:49;96023.16;;;7.43;42.78
40205;BME280;26963;42.666;23.366;2023-02-12T11:24:35;96042.19;;;7.52;42.65
40205;BME280;26963;42.666;23.366;2023-02-12T11:27:21;96043.56;;;7.72;42.96
40205;BME280;26963;42.666;23.366;2023-02-12T11:30:19;96004.91;;;7.52;43.07
40205;BME280;26963;42.666;23.366;2023-02-12T11:32:46;95946.00;;;7.26;42.76
40205;BME280;26963;42.666;23.366;2023-02-12T11:35:14;96030.91;;;7.84;42.33
40205;BME280;26963;42.666;23.366;2023-02-12T11:37:44;96036.06;;;7.91;42.60
40205;BME280;26963;42.666;23.366;2023-02-12T11:40:31;96013.25;;;7.78;42.23
40205;BME280;26963;42.666;23.366;2023-02-12T11:43:03;95989.63;;;7.64;42.56
40205;BME280;26963;42.666;23.366;2023-02-12T11:45:46;95952.63;;;7.46;42.10
40205;BME280;26963;42.666;23.366;2023-02-12T11:48:33;96013.88;;;7.85;42.30
40205;BME280;26963;42.666;23.366;2023-02-12T11:51:02;96033.72;;;7.94;41.84
40205;BME280;26963;42.666;23.366;2023-02-12T11:53:35;95797.59;;;6.33;41.85
40205;BME280;26963;42.666;23.366;2023-02-12T11:56:04;95952.50;;;7.35;42.39
40205;BME280;26963;42.666;23.366;2023-02-12T11:58:30;96011.53;;;7.66;41.94
40205;BME280;26963;42.666;23.366;2023-02-12T12:01:24;96043.63;;;7.77;42.17
40205;BME280;26963;42.666;23.366;2023-02-12T12:04:10;96043.78;;;7.70;42.62
40205;BME280;26963;42.666;23.366;2023-02-12T12:06:41;96051.03;;;7.75;42.62
40205;BME280;26963;42.666;23.366;2023-02-12T12:14:35;96031.97;;;7.83;42.27
40205;BME280;26963;42.666;23.366;2023-02-12T12:18:13;96033.41;;;7.91;42.43
40205;BME280;26963;42.666;23.366;2023-02-12T12:20:48;96047.50;;;7.91;42.05
40205;BME280;26963;42.666;23.366;2023-02-12T12:23:36;95987.31;;;7.51;42.15
40205;BME280;26963;42.666;23.366;2023-02-12T12:26:09;96016.28;;;7.64;42.00
40205;BME280;26963;42.666;23.366;2023-02-12T12:31:16;95921.94;;;6.99;42.08
40205;BME280;26963;42.666;23.366;2023-02-12T12:50:51;96049.72;;;7.94;42.04
40205;BME280;26963;42.666;23.366;2023-02-12T12:53:45;96021.03;;;7.62;41.99
40205;BME280;26963;42.666;23.366;2023-02-12T13:10:53;96072.72;;;7.61;42.50
40205;BME280;26963;42.666;23.366;2023-02-12T13:13:23;96058.59;;;7.44;42.65
40205;BME280;26963;42.666;23.366;2023-02-12T13:15:55;96076.91;;;7.57;42.98
40205;BME280;26963;42.666;23.366;2023-02-12T13:21:11;96013.53;;;7.20;43.05
40205;BME280;26963;42.666;23.366;2023-02-12T13:29:12;96064.00;;;7.49;43.21
40205;BME280;26963;42.666;23.366;2023-02-12T13:32:02;96086.44;;;7.53;43.52
40205;BME280;26963;42.666;23.366;2023-02-12T13:34:31;96045.63;;;7.30;43.47
40205;BME280;26963;42.666;23.366;2023-02-12T13:36:59;96011.94;;;7.02;43.60
40205;BME280;26963;42.666;23.366;2023-02-12T13:39:38;96065.81;;;7.26;43.46
40205;BME280;26963;42.666;23.366;2023-02-12T13:42:12;96086.53;;;7.24;43.48
40205;BME280;26963;42.666;23.366;2023-02-12T13:47:28;96086.19;;;7.04;44.45
40205;BME280;26963;42.666;23.366;2023-02-12T13:50:12;96098.47;;;7.05;44.50
40205;BME280;26963;42.666;23.366;2023-02-12T14:01:05;96084.44;;;6.63;45.01
40205;BME280;26963;42.666;23.366;2023-02-12T14:03:34;96094.47;;;6.73;45.41
40205;BME280;26963;42.666;23.366;2023-02-12T14:06:15;96012.00;;;6.27;45.70
40205;BME280;26963;42.666;23.366;2023-02-12T14:08:46;96092.50;;;6.68;45.28
40205;BME280;26963;42.666;23.366;2023-02-12T14:11:18;96098.97;;;6.73;45.31
40205;BME280;26963;42.666;23.366;2023-02-12T14:14:05;96112.78;;;6.87;45.36
40205;BME280;26963;42.666;23.366;2023-02-12T14:22:00;96107.47;;;6.87;45.16
40205;BME280;26963;42.666;23.366;2023-02-12T14:24:55;96129.25;;;7.00;45.13
40205;BME280;26963;42.666;23.366;2023-02-12T14:27:43;96132.72;;;7.01;45.19
40205;BME280;26963;42.666;23.366;2023-02-12T14:40:46;96150.94;;;6.92;45.57
40205;BME280;26963;42.666;23.366;2023-02-12T14:43:34;96159.94;;;6.91;45.33
40205;BME280;26963;42.666;23.366;2023-02-12T14:48:56;96163.00;;;6.83;45.44
40205;BME280;26963;42.666;23.366;2023-02-12T14:53:59;96090.59;;;6.23;45.66
40205;BME280;26963;42.666;23.366;2023-02-12T14:56:26;96163.06;;;6.59;45.61
40205;BME280;26963;42.666;23.366;2023-02-12T14:58:54;96155.00;;;6.54;45.90
40205;BME280;26963;42.666;23.366;2023-02-12T15:01:29;96151.09;;;6.45;45.88
40205;BME280;26963;42.666;23.366;2023-02-12T15:03:58;96182.97;;;6.57;46.22
40205;BME280;26963;42.666;23.366;2023-02-12T15:06:36;96171.91;;;6.48;46.37
40205;BME280;26963;42.666;23.366;2023-02-12T15:12:16;96204.94;;;6.52;46.29
40205;BME280;26963;42.666;23.366;2023-02-12T15:14:49;96203.81;;;6.48;46.58
40205;BME280;26963;42.666;23.366;2023-02-12T15:17:37;96197.13;;;6.33;46.73
40205;BME280;26963;42.666;23.366;2023-02-12T15:20:37;96192.50;;;6.29;46.78
40205;BME280;26963;42.666;23.366;2023-02-12T15:25:57;96233.38;;;6.40;46.83
40205;BME280;26963;42.666;23.366;2023-02-12T15:28:28;96206.97;;;6.21;46.84
40205;BME280;26963;42.666;23.366;2023-02-12T15:30:59;96241.50;;;6.45;46.75
40205;BME280;26963;42.666;23.366;2023-02-12T15:33:34;96247.28;;;6.42;46.94
40205;BME280;26963;42.666;23.366;2023-02-12T15:36:01;96245.09;;;6.39;46.74
40205;BME280;26963;42.666;23.366;2023-02-12T15:38:34;96184.88;;;5.97;47.09
40205;BME280;26963;42.666;23.366;2023-02-12T15:41:01;96270.19;;;6.31;46.98
40205;BME280;26963;42.666;23.366;2023-02-12T15:43:30;96188.22;;;5.80;47.15
40205;BME280;26963;42.666;23.366;2023-02-12T15:46:01;96234.69;;;6.13;47.08
40205;BME280;26963;42.666;23.366;2023-02-12T15:48:35;96241.50;;;6.21;47.36